sensor_id;sensor_type;location;lat;lon;timestamp;P1;durP1;ratioP1;P2;durP2;ratioP2
25922;SDS011;13725;51.170;4.442;2023-08-07T00:00:47;14.10;;;3.53;;
25922;SDS011;13725;51.170;4.442;2023-08-07T00:03:12;13.13;;;2.78;;
25922;SDS011;13725;51.170;4.442;2023-08-07T00:05:46;12.35;;;2.95;;
25922;SDS011;13725;51.170;4.442;2023-08-07T00:08:12;9.85;;;2.80;;
25922;SDS011;13725;51.170;4.442;2023-08-07T00:10:38;10.20;;;2.65;;
25922;SDS011;13725;51.170;4.442;2023-08-07T00:13:04;13.10;;;2.80;;
25922;SDS011;13725;51.170;4.442;2023-08-07T00:15:30;24.83;;;3.65;;
25922;SDS011;13725;51.170;4.442;2023-08-07T00:17:56;13.85;;;2.90;;
25922;SDS011;13725;51.170;4.442;2023-08-07T00:20:22;15.02;;;2.85;;
25922;SDS011;13725;51.170;4.442;2023-08-07T00:22:47;12.20;;;2.72;;
25922;SDS011;13725;51.170;4.442;2023-08-07T00:25:13;21.08;;;2.97;;
25922;SDS011;13725;51.170;4.442;2023-08-07T00:27:39;14.77;;;3.47;;
25922;SDS011;13725;51.170;4.442;2023-08-07T00:30:05;14.98;;;4.07;;
25922;SDS011;13725;51.170;4.442;2023-08-07T00:32:31;8.85;;;2.30;;
25922;SDS011;13725;51.170;4.442;2023-08-07T00:34:58;10.43;;;3.35;;
25922;SDS011;13725;51.170;4.442;2023-08-07T00:37:24;12.50;;;2.70;;
25922;SDS011;13725;51.170;4.442;2023-08-07T00:39:50;13.90;;;3.53;;
25922;SDS011;13725;51.170;4.442;2023-08-07T00:42:16;9.88;;;3.13;;
25922;SDS011;13725;51.170;4.442;2023-08-07T00:44:41;12.13;;;2.75;;
25922;SDS011;13725;51.170;4.442;2023-08-07T00:47:07;14.25;;;2.88;;
25922;SDS011;13725;51.170;4.442;2023-08-07T00:49:33;14.05;;;3.00;;
25922;SDS011;13725;51.170;4.442;2023-08-07T00:51:59;20.25;;;3.53;;
25922;SDS011;13725;51.170;4.442;2023-08-07T00:54:25;9.95;;;2.63;;
25922;SDS011;13725;51.170;4.442;2023-08-07T00:56:51;14.52;;;2.95;;
25922;SDS011;13725;51.170;4.442;2023-08-07T00:59:18;14.38;;;3.10;;
25922;SDS011;13725;51.170;4.442;2023-08-07T01:01:44;16.45;;;3.05;;
25922;SDS011;13725;51.170;4.442;2023-08-07T01:04:10;14.23;;;3.17;;
25922;SDS011;13725;51.170;4.442;2023-08-07T01:06:36;16.10;;;3.35;;
25922;SDS011;13725;51.170;4.442;2023-08-07T01:09:02;20.02;;;3.25;;
25922;SDS011;13725;51.170;4.442;2023-08-07T01:11:43;7.53;;;3.03;;
25922;SDS011;13725;51.170;4.442;2023-08-07T01:14:19;16.77;;;3.10;;
25922;SDS011;13725;51.170;4.442;2023-08-07T01:17:02;17.55;;;2.83;;
25922;SDS011;13725;51.170;4.442;2023-08-07T01:19:34;11.07;;;3.47;;
25922;SDS011;13725;51.170;4.442;2023-08-07T01:22:08;11.55;;;2.80;;
25922;SDS011;13725;51.170;4.442;2023-08-07T01:24:34;16.52;;;3.85;;
25922;SDS011;13725;51.170;4.442;2023-08-07T01:27:10;14.27;;;2.75;;
25922;SDS011;13725;51.170;4.442;2023-08-07T01:32:15;17.77;;;3.10;;
25922;SDS011;13725;51.170;4.442;2023-08-07T01:35:02;12.65;;;2.90;;
25922;SDS011;13725;51.170;4.442;2023-08-07T01:37:31;13.63;;;2.88;;
25922;SDS011;13725;51.170;4.442;2023-08-07T01:40:01;15.75;;;3.38;;
25922;SDS011;13725;51.170;4.442;2023-08-07T01:42:31;14.57;;;2.97;;
25922;SDS011;13725;51.170;4.442;2023-08-07T01:44:57;12.38;;;2.92;;
25922;SDS011;13725;51.170;4.442;2023-08-07T01:47:23;10.38;;;3.10;;
25922;SDS011;13725;51.170;4.442;2023-08-07T01:49:49;11.48;;;2.80;;
25922;SDS011;13725;51.170;4.442;2023-08-07T01:52:15;11.35;;;2.30;;
25922;SDS011;13725;51.170;4.442;2023-08-07T01:54:41;10.27;;;2.70;;
25922;SDS011;13725;51.170;4.442;2023-08-07T01:57:07;12.55;;;3.03;;
25922;SDS011;13725;51.170;4.442;2023-08-07T01:59:32;12.30;;;2.53;;
25922;SDS011;13725;51.170;4.442;2023-08-07T02:01:58;8.82;;;2.42;;
25922;SDS011;13725;51.170;4.442;2023-08-07T02:04:24;9.05;;;2.40;;
25922;SDS011;13725;51.170;4.442;2023-08-07T02:06:52;11.27;;;2.50;;
25922;SDS011;13725;51.170;4.442;2023-08-07T02:09:22;9.20;;;2.35;;
25922;SDS011;13725;51.170;4.442;2023-08-07T02:11:48;10.73;;;2.35;;
25922;SDS011;13725;51.170;4.442;2023-08-07T02:14:14;8.57;;;2.10;;
25922;SDS011;13725;51.170;4.442;2023-08-07T02:16:40;9.30;;;2.75;;
25922;SDS011;13725;51.170;4.442;2023-08-07T02:19:06;10.48;;;2.55;;
25922;SDS011;13725;51.170;4.442;2023-08-07T02:21:32;8.25;;;2.33;;
25922;SDS011;13725;51.170;4.442;2023-08-07T02:23:58;10.48;;;2.67;;
25922;SDS011;13725;51.170;4.442;2023-08-07T02:26:23;8.48;;;3.05;;
25922;SDS011;13725;51.170;4.442;2023-08-07T02:28:49;12.05;;;2.67;;
25922;SDS011;13725;51.170;4.442;2023-08-07T02:31:15;13.68;;;3.13;;
25922;SDS011;13725;51.170;4.442;2023-08-07T02:33:42;9.88;;;2.75;;
25922;SDS011;13725;51.170;4.442;2023-08-07T02:36:07;9.15;;;2.53;;
25922;SDS011;13725;51.170;4.442;2023-08-07T02:38:33;16.95;;;2.80;;
25922;SDS011;13725;51.170;4.442;2023-08-07T02:41:01;9.45;;;2.28;;
25922;SDS011;13725;51.170;4.442;2023-08-07T02:43:26;10.15;;;3.10;;
25922;SDS011;13725;51.170;4.442;2023-08-07T02:45:54;10.05;;;2.17;;
25922;SDS011;13725;51.170;4.442;2023-08-07T02:48:21;7.50;;;2.22;;
25922;SDS011;13725;51.170;4.442;2023-08-07T02:50:47;9.75;;;2.78;;
25922;SDS011;13725;51.170;4.442;2023-08-07T02:53:15;10.98;;;2.78;;
25922;SDS011;13725;51.170;4.442;2023-08-07T02:55:42;10.20;;;2.40;;
25922;SDS011;13725;51.170;4.442;2023-08-07T02:58:11;10.98;;;3.05;;
25922;SDS011;13725;51.170;4.442;2023-08-07T03:00:37;7.15;;;2.55;;
25922;SDS011;13725;51.170;4.442;2023-08-07T03:03:03;10.02;;;2.95;;
25922;SDS011;13725;51.170;4.442;2023-08-07T03:05:30;13.52;;;2.30;;
25922;SDS011;13725;51.170;4.442;2023-08-07T03:07:55;11.40;;;2.40;;
25922;SDS011;13725;51.170;4.442;2023-08-07T03:10:21;21.00;;;2.80;;
25922;SDS011;13725;51.170;4.442;2023-08-07T03:12:47;8.85;;;3.08;;
25922;SDS011;13725;51.170;4.442;2023-08-07T03:15:13;9.10;;;2.47;;
25922;SDS011;13725;51.170;4.442;2023-08-07T03:17:38;8.50;;;2.15;;
25922;SDS011;13725;51.170;4.442;2023-08-07T03:20:04;6.75;;;2.35;;
25922;SDS011;13725;51.170;4.442;2023-08-07T03:22:31;11.85;;;2.60;;
25922;SDS011;13725;51.170;4.442;2023-08-07T03:24:57;11.15;;;3.70;;
25922;SDS011;13725;51.170;4.442;2023-08-07T03:27:23;11.00;;;2.90;;
25922;SDS011;13725;51.170;4.442;2023-08-07T03:29:49;10.07;;;2.55;;
25922;SDS011;13725;51.170;4.442;2023-08-07T03:32:15;9.13;;;2.70;;
25922;SDS011;13725;51.170;4.442;2023-08-07T03:34:42;9.25;;;2.40;;
25922;SDS011;13725;51.170;4.442;2023-08-07T03:37:08;11.15;;;2.85;;
25922;SDS011;13725;51.170;4.442;2023-08-07T03:39:34;12.88;;;2.38;;
25922;SDS011;13725;51.170;4.442;2023-08-07T03:41:59;8.98;;;2.38;;
25922;SDS011;13725;51.170;4.442;2023-08-07T03:44:25;14.15;;;2.40;;
25922;SDS011;13725;51.170;4.442;2023-08-07T03:46:51;11.20;;;2.70;;
25922;SDS011;13725;51.170;4.442;2023-08-07T03:49:21;7.50;;;2.35;;
25922;SDS011;13725;51.170;4.442;2023-08-07T03:51:49;7.88;;;2.42;;
25922;SDS011;13725;51.170;4.442;2023-08-07T03:54:15;8.15;;;2.30;;
25922;SDS011;13725;51.170;4.442;2023-08-07T03:56:41;11.77;;;2.72;;
25922;SDS011;13725;51.170;4.442;2023-08-07T03:59:07;6.90;;;2.20;;
25922;SDS011;13725;51.170;4.442;2023-08-07T04:01:33;13.82;;;3.03;;
25922;SDS011;13725;51.170;4.442;2023-08-07T04:03:59;11.27;;;2.47;;
25922;SDS011;13725;51.170;4.442;2023-08-07T04:06:25;6.65;;;2.30;;
25922;SDS011;13725;51.170;4.442;2023-08-07T04:08:52;10.18;;;2.70;;
25922;SDS011;13725;51.170;4.442;2023-08-07T04:11:18;11.48;;;2.88;;
25922;SDS011;13725;51.170;4.442;2023-08-07T04:13:43;10.73;;;2.33;;
25922;SDS011;13725;51.170;4.442;2023-08-07T04:16:09;8.27;;;2.28;;
25922;SDS011;13725;51.170;4.442;2023-08-07T04:18:35;8.65;;;2.47;;
25922;SDS011;13725;51.170;4.442;2023-08-07T04:21:03;11.18;;;2.65;;
25922;SDS011;13725;51.170;4.442;2023-08-07T04:23:30;14.57;;;2.53;;
25922;SDS011;13725;51.170;4.442;2023-08-07T04:25:56;4.63;;;3.00;;
25922;SDS011;13725;51.170;4.442;2023-08-07T04:28:23;7.25;;;2.28;;
25922;SDS011;13725;51.170;4.442;2023-08-07T04:30:49;10.63;;;2.78;;
25922;SDS011;13725;51.170;4.442;2023-08-07T04:33:16;9.98;;;2.88;;
25922;SDS011;13725;51.170;4.442;2023-08-07T04:35:42;11.32;;;2.63;;
25922;SDS011;13725;51.170;4.442;2023-08-07T04:38:08;7.32;;;2.38;;
25922;SDS011;13725;51.170;4.442;2023-08-07T04:40:34;10.82;;;2.33;;
25922;SDS011;13725;51.170;4.442;2023-08-07T04:43:00;9.05;;;2.50;;
25922;SDS011;13725;51.170;4.442;2023-08-07T04:45:27;14.57;;;2.88;;
25922;SDS011;13725;51.170;4.442;2023-08-07T04:47:52;7.47;;;2.55;;
25922;SDS011;13725;51.170;4.442;2023-08-07T04:50:18;7.57;;;2.65;;
25922;SDS011;13725;51.170;4.442;2023-08-07T04:52:44;19.02;;;4.05;;
25922;SDS011;13725;51.170;4.442;2023-08-07T04:55:10;8.02;;;2.35;;
25922;SDS011;13725;51.170;4.442;2023-08-07T04:57:35;11.27;;;2.75;;
25922;SDS011;13725;51.170;4.442;2023-08-07T05:00:01;7.65;;;2.90;;
25922;SDS011;13725;51.170;4.442;2023-08-07T05:02:27;8.45;;;2.92;;
25922;SDS011;13725;51.170;4.442;2023-08-07T05:04:53;11.45;;;2.88;;
25922;SDS011;13725;51.170;4.442;2023-08-07T05:07:18;10.63;;;2.85;;
25922;SDS011;13725;51.170;4.442;2023-08-07T05:09:44;14.07;;;3.05;;
25922;SDS011;13725;51.170;4.442;2023-08-07T05:12:10;15.00;;;2.67;;
25922;SDS011;13725;51.170;4.442;2023-08-07T05:14:36;8.30;;;2.65;;
25922;SDS011;13725;51.170;4.442;2023-08-07T05:17:01;6.25;;;2.55;;
25922;SDS011;13725;51.170;4.442;2023-08-07T05:19:27;9.23;;;2.78;;
25922;SDS011;13725;51.170;4.442;2023-08-07T05:21:53;17.65;;;3.00;;
25922;SDS011;13725;51.170;4.442;2023-08-07T05:24:19;13.13;;;3.17;;
25922;SDS011;13725;51.170;4.442;2023-08-07T05:26:45;6.15;;;2.88;;
25922;SDS011;13725;51.170;4.442;2023-08-07T05:29:11;7.68;;;2.70;;
25922;SDS011;13725;51.170;4.442;2023-08-07T05:31:37;17.15;;;3.13;;
25922;SDS011;13725;51.170;4.442;2023-08-07T05:34:02;14.68;;;3.00;;
25922;SDS011;13725;51.170;4.442;2023-08-07T05:36:30;10.43;;;3.47;;
25922;SDS011;13725;51.170;4.442;2023-08-07T05:38:58;16.00;;;3.50;;
25922;SDS011;13725;51.170;4.442;2023-08-07T05:41:23;13.00;;;3.20;;
25922;SDS011;13725;51.170;4.442;2023-08-07T05:43:49;9.68;;;3.45;;
25922;SDS011;13725;51.170;4.442;2023-08-07T05:46:15;9.10;;;2.83;;
25922;SDS011;13725;51.170;4.442;2023-08-07T05:48:41;9.27;;;3.10;;
25922;SDS011;13725;51.170;4.442;2023-08-07T05:51:06;8.18;;;2.85;;
25922;SDS011;13725;51.170;4.442;2023-08-07T05:53:34;6.78;;;2.88;;
25922;SDS011;13725;51.170;4.442;2023-08-07T05:56:00;5.55;;;2.90;;
25922;SDS011;13725;51.170;4.442;2023-08-07T05:58:26;9.43;;;3.15;;
25922;SDS011;13725;51.170;4.442;2023-08-07T06:00:52;8.60;;;3.45;;
25922;SDS011;13725;51.170;4.442;2023-08-07T06:03:17;13.57;;;3.20;;
25922;SDS011;13725;51.170;4.442;2023-08-07T06:05:43;8.82;;;2.60;;
25922;SDS011;13725;51.170;4.442;2023-08-07T06:08:09;11.23;;;2.63;;
25922;SDS011;13725;51.170;4.442;2023-08-07T06:10:37;7.90;;;2.60;;
25922;SDS011;13725;51.170;4.442;2023-08-07T06:13:03;9.68;;;2.72;;
25922;SDS011;13725;51.170;4.442;2023-08-07T06:15:29;6.15;;;2.38;;
25922;SDS011;13725;51.170;4.442;2023-08-07T06:17:56;14.73;;;3.20;;
25922;SDS011;13725;51.170;4.442;2023-08-07T06:20:22;13.52;;;2.47;;
25922;SDS011;13725;51.170;4.442;2023-08-07T06:22:47;11.70;;;2.50;;
25922;SDS011;13725;51.170;4.442;2023-08-07T06:25:13;9.02;;;2.40;;
25922;SDS011;13725;51.170;4.442;2023-08-07T06:27:39;8.80;;;2.60;;
25922;SDS011;13725;51.170;4.442;2023-08-07T06:30:05;6.90;;;2.00;;
25922;SDS011;13725;51.170;4.442;2023-08-07T06:32:32;5.53;;;1.95;;
25922;SDS011;13725;51.170;4.442;2023-08-07T06:34:58;5.75;;;2.13;;
25922;SDS011;13725;51.170;4.442;2023-08-07T06:37:24;6.57;;;2.55;;
25922;SDS011;13725;51.170;4.442;2023-08-07T06:39:49;5.38;;;2.72;;
25922;SDS011;13725;51.170;4.442;2023-08-07T06:42:15;5.43;;;2.05;;
25922;SDS011;13725;51.170;4.442;2023-08-07T06:44:43;6.78;;;1.80;;
25922;SDS011;13725;51.170;4.442;2023-08-07T06:47:09;3.75;;;1.70;;
25922;SDS011;13725;51.170;4.442;2023-08-07T06:49:34;5.10;;;1.90;;
25922;SDS011;13725;51.170;4.442;2023-08-07T06:52:00;7.50;;;1.67;;
25922;SDS011;13725;51.170;4.442;2023-08-07T06:54:26;15.02;;;2.15;;
25922;SDS011;13725;51.170;4.442;2023-08-07T06:56:52;8.07;;;1.90;;
25922;SDS011;13725;51.170;4.442;2023-08-07T06:59:17;12.93;;;2.55;;
25922;SDS011;13725;51.170;4.442;2023-08-07T07:01:43;7.57;;;2.00;;
25922;SDS011;13725;51.170;4.442;2023-08-07T07:04:09;6.60;;;2.20;;
25922;SDS011;13725;51.170;4.442;2023-08-07T07:06:36;4.90;;;1.90;;
25922;SDS011;13725;51.170;4.442;2023-08-07T07:09:03;7.80;;;2.85;;
25922;SDS011;13725;51.170;4.442;2023-08-07T07:11:28;8.90;;;2.10;;
25922;SDS011;13725;51.170;4.442;2023-08-07T07:13:54;9.40;;;2.70;;
25922;SDS011;13725;51.170;4.442;2023-08-07T07:16:20;8.60;;;2.25;;
25922;SDS011;13725;51.170;4.442;2023-08-07T07:18:50;7.78;;;2.95;;
25922;SDS011;13725;51.170;4.442;2023-08-07T07:21:16;8.77;;;2.15;;
25922;SDS011;13725;51.170;4.442;2023-08-07T07:23:42;4.90;;;2.08;;
25922;SDS011;13725;51.170;4.442;2023-08-07T07:26:09;7.07;;;2.13;;
25922;SDS011;13725;51.170;4.442;2023-08-07T07:28:35;8.13;;;2.88;;
25922;SDS011;13725;51.170;4.442;2023-08-07T07:31:01;8.38;;;2.10;;
25922;SDS011;13725;51.170;4.442;2023-08-07T07:33:30;4.20;;;1.80;;
25922;SDS011;13725;51.170;4.442;2023-08-07T07:35:56;6.03;;;1.70;;
25922;SDS011;13725;51.170;4.442;2023-08-07T07:38:21;8.38;;;1.95;;
25922;SDS011;13725;51.170;4.442;2023-08-07T07:40:47;4.47;;;1.80;;
25922;SDS011;13725;51.170;4.442;2023-08-07T07:43:13;8.13;;;2.28;;
25922;SDS011;13725;51.170;4.442;2023-08-07T07:45:39;8.07;;;2.22;;
25922;SDS011;13725;51.170;4.442;2023-08-07T07:48:05;5.65;;;2.10;;
25922;SDS011;13725;51.170;4.442;2023-08-07T07:50:33;7.43;;;2.13;;
25922;SDS011;13725;51.170;4.442;2023-08-07T07:53:00;7.45;;;2.00;;
25922;SDS011;13725;51.170;4.442;2023-08-07T07:55:26;4.85;;;1.80;;
25922;SDS011;13725;51.170;4.442;2023-08-07T07:57:53;9.55;;;2.47;;
25922;SDS011;13725;51.170;4.442;2023-08-07T08:00:19;7.03;;;2.78;;
25922;SDS011;13725;51.170;4.442;2023-08-07T08:02:45;5.95;;;2.33;;
25922;SDS011;13725;51.170;4.442;2023-08-07T08:05:11;7.15;;;2.20;;
25922;SDS011;13725;51.170;4.442;2023-08-07T08:07:37;6.88;;;2.00;;
25922;SDS011;13725;51.170;4.442;2023-08-07T08:10:07;6.97;;;1.88;;
25922;SDS011;13725;51.170;4.442;2023-08-07T08:12:34;8.07;;;2.35;;
25922;SDS011;13725;51.170;4.442;2023-08-07T08:15:01;3.10;;;1.90;;
25922;SDS011;13725;51.170;4.442;2023-08-07T08:17:28;4.38;;;2.00;;
25922;SDS011;13725;51.170;4.442;2023-08-07T08:19:54;4.43;;;2.10;;
25922;SDS011;13725;51.170;4.442;2023-08-07T08:22:19;8.00;;;2.35;;
25922;SDS011;13725;51.170;4.442;2023-08-07T08:24:45;5.93;;;1.85;;
25922;SDS011;13725;51.170;4.442;2023-08-07T08:27:13;7.07;;;2.00;;
25922;SDS011;13725;51.170;4.442;2023-08-07T08:29:38;6.07;;;2.03;;
25922;SDS011;13725;51.170;4.442;2023-08-07T08:32:04;9.75;;;1.65;;
25922;SDS011;13725;51.170;4.442;2023-08-07T08:34:31;7.45;;;2.03;;
25922;SDS011;13725;51.170;4.442;2023-08-07T08:36:56;4.75;;;1.77;;
25922;SDS011;13725;51.170;4.442;2023-08-07T08:39:22;4.75;;;1.65;;
25922;SDS011;13725;51.170;4.442;2023-08-07T08:41:49;4.72;;;2.15;;
25922;SDS011;13725;51.170;4.442;2023-08-07T08:44:15;7.20;;;2.25;;
25922;SDS011;13725;51.170;4.442;2023-08-07T08:46:44;4.10;;;1.42;;
25922;SDS011;13725;51.170;4.442;2023-08-07T08:49:14;7.07;;;2.05;;
25922;SDS011;13725;51.170;4.442;2023-08-07T08:51:44;4.97;;;1.63;;
25922;SDS011;13725;51.170;4.442;2023-08-07T08:54:10;6.32;;;1.88;;
25922;SDS011;13725;51.170;4.442;2023-08-07T08:56:36;4.93;;;1.88;;
25922;SDS011;13725;51.170;4.442;2023-08-07T08:59:03;5.82;;;1.65;;
25922;SDS011;13725;51.170;4.442;2023-08-07T09:01:29;6.53;;;2.15;;
25922;SDS011;13725;51.170;4.442;2023-08-07T09:03:57;10.07;;;2.03;;
25922;SDS011;13725;51.170;4.442;2023-08-07T09:06:23;3.63;;;1.35;;
25922;SDS011;13725;51.170;4.442;2023-08-07T09:08:51;9.25;;;1.95;;
25922;SDS011;13725;51.170;4.442;2023-08-07T09:11:18;4.30;;;1.88;;
25922;SDS011;13725;51.170;4.442;2023-08-07T09:13:45;5.32;;;2.08;;
25922;SDS011;13725;51.170;4.442;2023-08-07T09:16:13;3.53;;;2.05;;
25922;SDS011;13725;51.170;4.442;2023-08-07T09:18:40;7.03;;;2.00;;
25922;SDS011;13725;51.170;4.442;2023-08-07T09:21:06;8.23;;;2.33;;
25922;SDS011;13725;51.170;4.442;2023-08-07T09:23:31;3.67;;;1.80;;
25922;SDS011;13725;51.170;4.442;2023-08-07T09:26:00;3.70;;;1.55;;
25922;SDS011;13725;51.170;4.442;2023-08-07T09:28:31;5.57;;;1.80;;
25922;SDS011;13725;51.170;4.442;2023-08-07T09:30:58;5.05;;;1.50;;
25922;SDS011;13725;51.170;4.442;2023-08-07T09:33:28;7.00;;;1.90;;
25922;SDS011;13725;51.170;4.442;2023-08-07T09:35:58;4.07;;;1.63;;
25922;SDS011;13725;51.170;4.442;2023-08-07T09:38:30;4.68;;;1.77;;
25922;SDS011;13725;51.170;4.442;2023-08-07T09:43:26;3.90;;;1.58;;
25922;SDS011;13725;51.170;4.442;2023-08-07T09:45:52;2.95;;;1.30;;
25922;SDS011;13725;51.170;4.442;2023-08-07T09:48:24;5.50;;;1.83;;
25922;SDS011;13725;51.170;4.442;2023-08-07T09:50:50;7.05;;;1.70;;
25922;SDS011;13725;51.170;4.442;2023-08-07T09:53:16;2.90;;;1.50;;
25922;SDS011;13725;51.170;4.442;2023-08-07T09:55:42;3.00;;;1.63;;
25922;SDS011;13725;51.170;4.442;2023-08-07T09:58:08;5.43;;;1.42;;
25922;SDS011;13725;51.170;4.442;2023-08-07T10:00:37;4.85;;;1.80;;
25922;SDS011;13725;51.170;4.442;2023-08-07T10:03:05;2.67;;;1.20;;
25922;SDS011;13725;51.170;4.442;2023-08-07T10:05:31;3.47;;;1.30;;
25922;SDS011;13725;51.170;4.442;2023-08-07T10:07:57;2.50;;;1.25;;
25922;SDS011;13725;51.170;4.442;2023-08-07T10:10:23;2.85;;;1.50;;
25922;SDS011;13725;51.170;4.442;2023-08-07T10:12:50;3.22;;;1.38;;
25922;SDS011;13725;51.170;4.442;2023-08-07T10:15:17;2.65;;;1.27;;
25922;SDS011;13725;51.170;4.442;2023-08-07T10:17:44;4.53;;;1.65;;
25922;SDS011;13725;51.170;4.442;2023-08-07T10:20:11;5.68;;;1.75;;
25922;SDS011;13725;51.170;4.442;2023-08-07T10:22:38;1.45;;;1.30;;
25922;SDS011;13725;51.170;4.442;2023-08-07T10:25:05;3.08;;;1.58;;
25922;SDS011;13725;51.170;4.442;2023-08-07T10:27:33;2.50;;;1.35;;
25922;SDS011;13725;51.170;4.442;2023-08-07T10:30:01;3.15;;;1.35;;
25922;SDS011;13725;51.170;4.442;2023-08-07T10:32:29;2.72;;;1.30;;
25922;SDS011;13725;51.170;4.442;2023-08-07T10:34:56;2.50;;;1.50;;
25922;SDS011;13725;51.170;4.442;2023-08-07T10:37:32;3.72;;;1.20;;
25922;SDS011;13725;51.170;4.442;2023-08-07T10:40:08;1.90;;;1.08;;
25922;SDS011;13725;51.170;4.442;2023-08-07T10:45:37;2.45;;;1.08;;
25922;SDS011;13725;51.170;4.442;2023-08-07T10:48:13;1.75;;;1.23;;
25922;SDS011;13725;51.170;4.442;2023-08-07T10:56:03;1.23;;;1.10;;
25922;SDS011;13725;51.170;4.442;2023-08-07T11:03:56;1.65;;;0.93;;
25922;SDS011;13725;51.170;4.442;2023-08-07T11:06:24;2.45;;;1.10;;
25922;SDS011;13725;51.170;4.442;2023-08-07T11:08:56;2.95;;;1.13;;
25922;SDS011;13725;51.170;4.442;2023-08-07T11:11:23;4.60;;;1.20;;
25922;SDS011;13725;51.170;4.442;2023-08-07T11:13:50;2.97;;;1.05;;
25922;SDS011;13725;51.170;4.442;2023-08-07T11:16:16;1.77;;;1.10;;
25922;SDS011;13725;51.170;4.442;2023-08-07T11:18:43;2.13;;;0.95;;
25922;SDS011;13725;51.170;4.442;2023-08-07T11:21:09;1.85;;;1.10;;
25922;SDS011;13725;51.170;4.442;2023-08-07T11:23:39;1.02;;;0.93;;
25922;SDS011;13725;51.170;4.442;2023-08-07T11:26:06;3.55;;;1.13;;
25922;SDS011;13725;51.170;4.442;2023-08-07T11:28:33;2.08;;;1.23;;
25922;SDS011;13725;51.170;4.442;2023-08-07T11:30:59;3.70;;;1.15;;
25922;SDS011;13725;51.170;4.442;2023-08-07T11:33:26;1.80;;;1.10;;
25922;SDS011;13725;51.170;4.442;2023-08-07T11:35:53;2.63;;;1.23;;
25922;SDS011;13725;51.170;4.442;2023-08-07T11:38:33;1.02;;;0.95;;
25922;SDS011;13725;51.170;4.442;2023-08-07T11:41:00;4.35;;;1.23;;
25922;SDS011;13725;51.170;4.442;2023-08-07T11:43:30;1.88;;;1.27;;
25922;SDS011;13725;51.170;4.442;2023-08-07T11:45:57;2.58;;;1.10;;
25922;SDS011;13725;51.170;4.442;2023-08-07T11:48:25;1.52;;;0.80;;
25922;SDS011;13725;51.170;4.442;2023-08-07T11:50:52;3.40;;;0.95;;
25922;SDS011;13725;51.170;4.442;2023-08-07T11:53:21;1.75;;;1.05;;
25922;SDS011;13725;51.170;4.442;2023-08-07T11:58:19;1.05;;;0.80;;
25922;SDS011;13725;51.170;4.442;2023-08-07T12:00:46;1.92;;;0.93;;
25922;SDS011;13725;51.170;4.442;2023-08-07T12:03:27;2.70;;;1.02;;
25922;SDS011;13725;51.170;4.442;2023-08-07T12:05:56;1.52;;;1.05;;
25922;SDS011;13725;51.170;4.442;2023-08-07T12:08:22;2.83;;;0.90;;
25922;SDS011;13725;51.170;4.442;2023-08-07T12:10:58;3.38;;;1.00;;
25922;SDS011;13725;51.170;4.442;2023-08-07T12:13:26;1.38;;;1.10;;
25922;SDS011;13725;51.170;4.442;2023-08-07T12:15:55;5.07;;;1.20;;
25922;SDS011;13725;51.170;4.442;2023-08-07T12:18:22;1.98;;;0.95;;
25922;SDS011;13725;51.170;4.442;2023-08-07T12:20:52;1.85;;;1.38;;
25922;SDS011;13725;51.170;4.442;2023-08-07T12:23:22;2.35;;;1.13;;
25922;SDS011;13725;51.170;4.442;2023-08-07T12:25:48;2.10;;;1.67;;
25922;SDS011;13725;51.170;4.442;2023-08-07T12:28:15;1.85;;;1.25;;
25922;SDS011;13725;51.170;4.442;2023-08-07T12:30:44;3.22;;;1.25;;
25922;SDS011;13725;51.170;4.442;2023-08-07T12:33:11;5.47;;;1.30;;
25922;SDS011;13725;51.170;4.442;2023-08-07T12:35:37;2.97;;;1.27;;
25922;SDS011;13725;51.170;4.442;2023-08-07T12:38:02;2.25;;;1.20;;
25922;SDS011;13725;51.170;4.442;2023-08-07T12:40:29;4.15;;;1.13;;
25922;SDS011;13725;51.170;4.442;2023-08-07T12:42:56;1.83;;;1.10;;
25922;SDS011;13725;51.170;4.442;2023-08-07T12:45:23;1.63;;;0.98;;
25922;SDS011;13725;51.170;4.442;2023-08-07T12:47:48;1.73;;;1.35;;
25922;SDS011;13725;51.170;4.442;2023-08-07T12:50:14;1.40;;;1.27;;
25922;SDS011;13725;51.170;4.442;2023-08-07T12:52:40;3.60;;;1.33;;
25922;SDS011;13725;51.170;4.442;2023-08-07T12:55:06;3.17;;;1.42;;
25922;SDS011;13725;51.170;4.442;2023-08-07T12:57:33;3.03;;;1.30;;
25922;SDS011;13725;51.170;4.442;2023-08-07T12:59:59;0.90;;;0.90;;
25922;SDS011;13725;51.170;4.442;2023-08-07T13:02:24;3.17;;;1.10;;
25922;SDS011;13725;51.170;4.442;2023-08-07T13:04:50;1.98;;;1.30;;
25922;SDS011;13725;51.170;4.442;2023-08-07T13:07:20;2.67;;;1.33;;
25922;SDS011;13725;51.170;4.442;2023-08-07T13:09:46;4.20;;;1.20;;
25922;SDS011;13725;51.170;4.442;2023-08-07T13:12:13;34.97;;;4.88;;
25922;SDS011;13725;51.170;4.442;2023-08-07T13:14:39;10.85;;;1.85;;
25922;SDS011;13725;51.170;4.442;2023-08-07T13:17:04;1.20;;;1.00;;
25922;SDS011;13725;51.170;4.442;2023-08-07T13:19:30;3.33;;;1.08;;
25922;SDS011;13725;51.170;4.442;2023-08-07T13:21:56;4.50;;;1.00;;
25922;SDS011;13725;51.170;4.442;2023-08-07T13:24:22;2.35;;;1.02;;
25922;SDS011;13725;51.170;4.442;2023-08-07T13:26:48;1.42;;;1.02;;
25922;SDS011;13725;51.170;4.442;2023-08-07T13:29:13;2.55;;;1.05;;
25922;SDS011;13725;51.170;4.442;2023-08-07T13:31:40;6.25;;;1.00;;
25922;SDS011;13725;51.170;4.442;2023-08-07T13:34:11;2.92;;;0.90;;
25922;SDS011;13725;51.170;4.442;2023-08-07T13:36:37;3.85;;;1.02;;
25922;SDS011;13725;51.170;4.442;2023-08-07T13:39:07;3.45;;;1.05;;
25922;SDS011;13725;51.170;4.442;2023-08-07T13:41:34;4.82;;;1.40;;
25922;SDS011;13725;51.170;4.442;2023-08-07T13:44:00;4.80;;;1.27;;
25922;SDS011;13725;51.170;4.442;2023-08-07T13:46:26;1.05;;;0.80;;
25922;SDS011;13725;51.170;4.442;2023-08-07T13:48:52;3.65;;;1.23;;
25922;SDS011;13725;51.170;4.442;2023-08-07T13:51:18;3.40;;;1.40;;
25922;SDS011;13725;51.170;4.442;2023-08-07T13:53:44;1.98;;;0.98;;
25922;SDS011;13725;51.170;4.442;2023-08-07T13:56:10;2.90;;;0.90;;
25922;SDS011;13725;51.170;4.442;2023-08-07T13:58:41;3.13;;;1.10;;
25922;SDS011;13725;51.170;4.442;2023-08-07T14:01:07;10.65;;;1.42;;
25922;SDS011;13725;51.170;4.442;2023-08-07T14:03:33;4.97;;;0.88;;
25922;SDS011;13725;51.170;4.442;2023-08-07T14:06:00;2.47;;;0.90;;
25922;SDS011;13725;51.170;4.442;2023-08-07T14:08:26;3.78;;;0.90;;
25922;SDS011;13725;51.170;4.442;2023-08-07T14:10:52;3.72;;;1.05;;
25922;SDS011;13725;51.170;4.442;2023-08-07T14:13:18;4.25;;;1.00;;
25922;SDS011;13725;51.170;4.442;2023-08-07T14:15:44;1.83;;;0.82;;
25922;SDS011;13725;51.170;4.442;2023-08-07T14:18:09;1.13;;;0.60;;
25922;SDS011;13725;51.170;4.442;2023-08-07T14:20:37;1.90;;;0.82;;
25922;SDS011;13725;51.170;4.442;2023-08-07T14:23:03;5.20;;;0.77;;
25922;SDS011;13725;51.170;4.442;2023-08-07T14:25:29;2.05;;;0.73;;
25922;SDS011;13725;51.170;4.442;2023-08-07T14:27:55;2.55;;;1.10;;
25922;SDS011;13725;51.170;4.442;2023-08-07T14:30:20;3.05;;;0.90;;
25922;SDS011;13725;51.170;4.442;2023-08-07T14:32:46;4.53;;;1.08;;
25922;SDS011;13725;51.170;4.442;2023-08-07T14:35:13;3.20;;;0.75;;
25922;SDS011;13725;51.170;4.442;2023-08-07T14:37:39;3.08;;;1.13;;
25922;SDS011;13725;51.170;4.442;2023-08-07T14:40:05;2.15;;;0.88;;
25922;SDS011;13725;51.170;4.442;2023-08-07T14:42:32;3.45;;;0.93;;
25922;SDS011;13725;51.170;4.442;2023-08-07T14:44:58;7.63;;;1.10;;
25922;SDS011;13725;51.170;4.442;2023-08-07T14:47:24;9.10;;;1.15;;
25922;SDS011;13725;51.170;4.442;2023-08-07T14:49:50;11.18;;;1.63;;
25922;SDS011;13725;51.170;4.442;2023-08-07T14:52:17;4.80;;;1.58;;
25922;SDS011;13725;51.170;4.442;2023-08-07T14:54:43;2.97;;;0.82;;
25922;SDS011;13725;51.170;4.442;2023-08-07T14:57:09;3.38;;;0.82;;
25922;SDS011;13725;51.170;4.442;2023-08-07T14:59:34;2.10;;;0.80;;
25922;SDS011;13725;51.170;4.442;2023-08-07T15:02:01;2.28;;;0.88;;